Time;durP1;ratioP1;P1;durP2;ratioP2;P2;SDS_P1;SDS_P2;PMS_P1;PMS_P2;Temp;Humidity;BMP_temperature;BMP_pressure;BME280_temperature;BME280_humidity;BME280_pressure;Samples;Min_cycle;Max_cycle;Signal;HPM_P1;HPM_P2
2022/05/10 00:01:58;;;;;;;;;;;;;;;17.04;60.12;100372.31;4333277;33;20036;-85
2022/05/10 00:04:23;;;;;;;;;;;;;;;17.02;60.12;100370.66;4319769;33;20230;-85
2022/05/10 00:06:49;;;;;;;;;;;;;;;16.96;60.12;100374.44;4331726;33;20016;-85
2022/05/10 00:09:14;;;;;;;;;;;;;;;17.03;60.12;100378.47;4331898;33;20007;-85
2022/05/10 00:11:40;;;;;;;;;;;;;;;17.17;60.13;100380.44;4331797;33;19987;-86
2022/05/10 00:14:05;;;;;;;;;;;;;;;17.11;60.12;100375.50;4332739;33;20324;-88
2022/05/10 00:16:30;;;;;;;;;;;;;;;17.21;60.13;100366.19;4319097;33;31103;-88
2022/05/10 00:18:56;;;;;;;;;;;;;;;17.23;60.14;100366.97;4331864;33;20545;-85
2022/05/10 00:21:22;;;;;;;;;;;;;;;17.21;60.13;100366.19;4331717;33;20007;-85
2022/05/10 00:23:47;;;;;;;;;;;;;;;17.19;60.13;100368.06;4333283;33;20325;-85
2022/05/10 00:26:12;;;;;;;;;;;;;;;17.25;60.13;100369.53;4334554;33;19980;-85
2022/05/10 00:28:38;;;;;;;;;;;;;;;17.31;60.14;100366.63;4320894;33;20035;-85
2022/05/10 00:31:03;;;;;;;;;;;;;;;17.29;60.13;100364.06;4334271;33;20101;-85
2022/05/10 00:33:29;;;;;;;;;;;;;;;17.27;60.13;100357.16;4332741;33;23918;-86
2022/05/10 00:35:54;;;;;;;;;;;;;;;17.42;60.14;100353.75;4333276;33;19983;-86
2022/05/10 00:38:19;;;;;;;;;;;;;;;17.18;60.12;100355.84;4333205;33;20028;-86
2022/05/10 00:40:44;;;;;;;;;;;;;;;17.26;60.13;100352.81;4321026;33;20326;-86
2022/05/10 00:43:25;;;;;;;;;;;;;;;17.15;60.13;100343.69;4331081;33;20223;-86
2022/05/10 00:45:53;;;;;;;;;;;;;;;17.35;60.14;100341.84;4335628;33;20014;-86
2022/05/10 00:48:22;;;;;;;;;;;;;;;17.54;60.15;100337.34;4335469;33;20341;-85
2022/05/10 00:50:48;;;;;;;;;;;;;;;17.32;60.14;100342.84;4335590;33;19991;-85
2022/05/10 00:53:32;;;;;;;;;;;;;;;17.40;60.14;100343.31;4349151;33;20333;-85
2022/05/10 00:55:58;;;;;;;;;;;;;;;17.40;60.15;100345.09;4348914;33;19983;-85
2022/05/10 00:58:25;;;;;;;;;;;;;;;17.39;60.15;100338.13;4335395;33;20310;-85
2022/05/10 01:00:52;;;;;;;;;;;;;;;17.27;60.13;100336.09;4348053;33;20003;-84
2022/05/10 01:03:33;;;;;;;;;;;;;;;17.01;60.12;100332.97;4347953;33;19994;-85
2022/05/10 01:05:59;;;;;;;;;;;;;;;17.29;60.13;100327.22;4347902;33;20039;-84
2022/05/10 01:08:28;;;;;;;;;;;;;;;17.10;60.12;100323.81;4335521;33;20353;-85
2022/05/10 01:10:59;;;;;;;;;;;;;;;16.77;60.11;100326.28;4348909;33;20349;-85
2022/05/10 01:13:32;;;;;;;;;;;;;;;16.82;60.10;100322.53;4349560;33;19987;-85
2022/05/10 01:16:07;;;;;;;;;;;;;;;16.82;60.11;100327.78;4347858;33;19983;-84
2022/05/10 01:18:32;;;;;;;;;;;;;;;16.96;60.12;100319.22;4347583;33;20257;-85
2022/05/10 01:21:00;;;;;;;;;;;;;;;16.98;60.12;100319.13;4347240;33;20010;-84
2022/05/10 01:23:25;;;;;;;;;;;;;;;16.87;60.12;100317.91;4347762;33;19991;-84
2022/05/10 01:25:56;;;;;;;;;;;;;;;16.99;60.11;100307.69;4348865;33;19979;-84
2022/05/10 01:28:21;;;;;;;;;;;;;;;16.95;60.12;100316.66;4335203;33;19987;-85
2022/05/10 01:30:46;;;;;;;;;;;;;;;16.93;60.12;100314.13;4348906;33;20042;-85
2022/05/10 01:33:30;;;;;;;;;;;;;;;16.89;60.12;100312.56;4346603;33;20042;-85
2022/05/10 01:36:00;;;;;;;;;;;;;;;17.03;60.12;100310.09;4347756;33;20039;-86
2022/05/10 01:38:27;;;;;;;;;;;;;;;16.88;60.11;100308.22;4347423;33;20325;-85
2022/05/10 01:40:53;;;;;;;;;;;;;;;16.99;60.11;100312.94;4335134;33;19999;-85
2022/05/10 01:43:38;;;;;;;;;;;;;;;16.79;60.11;100308.66;4335126;33;19983;-85
2022/05/10 01:46:07;;;;;;;;;;;;;;;16.91;60.11;100309.84;4335393;33;20478;-85
2022/05/10 01:48:34;;;;;;;;;;;;;;;16.86;60.11;100305.69;4347694;33;20011;-85
2022/05/10 01:51:04;;;;;;;;;;;;;;;16.79;60.10;100301.63;4347778;33;19991;-85
2022/05/10 01:53:30;;;;;;;;;;;;;;;16.80;60.10;100299.88;4335443;33;19980;-85
2022/05/10 01:56:01;;;;;;;;;;;;;;;16.90;60.11;100303.75;4345478;33;20103;-85
2022/05/10 01:58:27;;;;;;;;;;;;;;;16.74;60.10;100300.16;4345512;33;20010;-84
2022/05/10 02:00:55;;;;;;;;;;;;;;;16.79;60.11;100303.41;4345080;33;19999;-85
2022/05/10 02:03:35;;;;;;;;;;;;;;;16.81;60.11;100298.94;4344853;33;20762;-85
2022/05/10 02:06:12;;;;;;;;;;;;;;;16.75;60.10;100297.44;4344941;33;20039;-85
2022/05/10 02:08:44;;;;;;;;;;;;;;;16.72;60.11;100297.59;4333994;33;20007;-85
2022/05/10 02:11:10;;;;;;;;;;;;;;;16.78;60.11;100288.56;4344911;33;19991;-85
2022/05/10 02:13:37;;;;;;;;;;;;;;;16.75;60.10;100294.81;4345088;33;20015;-86
2022/05/10 02:16:05;;;;;;;;;;;;;;;16.65;60.10;100293.53;4333859;33;19976;-87
2022/05/10 02:18:42;;;;;;;;;;;;;;;16.66;60.10;100297.91;4345120;33;20002;-86
2022/05/10 02:21:07;;;;;;;;;;;;;;;16.83;60.10;100292.69;4347329;33;20006;-86
2022/05/10 02:23:35;;;;;;;;;;;;;;;16.65;60.10;100297.94;4348780;33;20019;-85
2022/05/10 02:26:04;;;;;;;;;;;;;;;16.61;60.09;100291.16;4334993;33;19972;-86
2022/05/10 02:28:37;;;;;;;;;;;;;;;16.44;60.09;100295.41;4334950;33;20007;-86
2022/05/10 02:31:21;;;;;;;;;;;;;;;16.52;60.09;100287.16;4322565;33;20002;-85
2022/05/10 02:33:47;;;;;;;;;;;;;;;16.37;60.08;100295.78;4348509;33;19995;-86
2022/05/10 02:36:12;;;;;;;;;;;;;;;16.43;60.08;100293.72;4334915;33;19997;-86
2022/05/10 02:38:38;;;;;;;;;;;;;;;16.24;60.08;100293.72;4335022;33;20018;-86
2022/05/10 02:41:13;;;;;;;;;;;;;;;16.39;60.08;100286.91;4323542;33;20286;-85
2022/05/10 02:43:58;;;;;;;;;;;;;;;16.24;60.08;100288.47;4322505;33;20438;-86
2022/05/10 02:46:24;;;;;;;;;;;;;;;16.23;60.08;100292.03;4348549;33;19999;-86
2022/05/10 02:48:49;;;;;;;;;;;;;;;16.22;60.07;100292.94;4348466;33;19979;-85
2022/05/10 02:51:15;;;;;;;;;;;;;;;16.08;60.06;100287.47;4334952;33;19999;-86
2022/05/10 02:53:40;;;;;;;;;;;;;;;16.19;60.07;100295.72;4335044;33;19994;-85
2022/05/10 02:56:07;;;;;;;;;;;;;;;16.20;60.07;100292.16;4347041;33;19994;-85
2022/05/10 02:58:50;;;;;;;;;;;;;;;16.13;60.07;100290.75;4335340;33;19971;-86
2022/05/10 03:01:19;;;;;;;;;;;;;;;16.16;60.08;100295.00;4338383;33;19999;-85
2022/05/10 03:03:45;;;;;;;;;;;;;;;16.06;60.06;100297.19;4349663;33;19980;-85
2022/05/10 03:06:13;;;;;;;;;;;;;;;16.06;60.07;100288.47;4357792;33;20002;-86
2022/05/10 03:08:38;;;;;;;;;;;;;;;15.79;60.06;100295.81;4349786;33;19991;-86
2022/05/10 03:11:04;;;;;;;;;;;;;;;15.61;60.04;100298.37;4347419;33;19983;-84
2022/05/10 03:13:29;;;;;;;;;;;;;;;15.60;60.04;100296.62;4334754;33;20037;-85
2022/05/10 03:15:54;;;;;;;;;;;;;;;15.52;60.03;100295.25;4346157;33;29983;-84
2022/05/10 03:18:19;;;;;;;;;;;;;;;15.45;60.03;100301.69;4346813;33;20006;-85
2022/05/10 03:20:45;;;;;;;;;;;;;;;15.49;60.04;100304.09;4346900;33;20337;-85
2022/05/10 03:23:10;;;;;;;;;;;;;;;15.33;60.03;100300.41;4348090;33;19980;-84
2022/05/10 03:25:35;;;;;;;;;;;;;;;15.30;60.02;100297.94;4347526;33;20002;-85
2022/05/10 03:28:01;;;;;;;;;;;;;;;15.51;60.03;100299.62;4346862;33;20007;-85
2022/05/10 03:30:26;;;;;;;;;;;;;;;15.49;60.04;100304.09;4334393;33;19999;-85
2022/05/10 03:32:53;;;;;;;;;;;;;;;15.51;60.04;100294.37;4347001;33;20292;-85
2022/05/10 03:35:18;;;;;;;;;;;;;;;15.38;60.03;100308.97;4347179;33;19999;-85
2022/05/10 03:37:43;;;;;;;;;;;;;;;15.38;60.03;100297.59;4346576;33;20339;-85
2022/05/10 03:40:09;;;;;;;;;;;;;;;15.44;60.03;100305.22;4347925;33;20300;-85
2022/05/10 03:42:34;;;;;;;;;;;;;;;15.42;60.04;100297.41;4346560;33;20320;-84
2022/05/10 03:44:59;;;;;;;;;;;;;;;15.54;60.04;100306.50;4346346;33;20023;-86
2022/05/10 03:47:26;;;;;;;;;;;;;;;15.45;60.03;100301.69;4348014;33;20359;-86
2022/05/10 03:49:51;;;;;;;;;;;;;;;15.60;60.04;100290.53;4334130;33;20051;-85
2022/05/10 03:52:16;;;;;;;;;;;;;;;15.75;60.05;100291.63;4347720;33;19983;-86
2022/05/10 03:54:42;;;;;;;;;;;;;;;15.90;60.06;100297.06;4339609;33;20000;-86
2022/05/10 03:57:07;;;;;;;;;;;;;;;16.01;60.07;100287.81;4332139;33;20245;-84
2022/05/10 03:59:32;;;;;;;;;;;;;;;16.06;60.07;100284.06;4332910;33;20381;-85
2022/05/10 04:01:58;;;;;;;;;;;;;;;16.16;60.08;100284.50;4332683;33;25323;-84
2022/05/10 04:04:23;;;;;;;;;;;;;;;16.07;60.06;100288.37;4319206;33;19976;-85
2022/05/10 04:06:48;;;;;;;;;;;;;;;16.15;60.07;100285.44;4332938;33;19995;-85
2022/05/10 04:09:14;;;;;;;;;;;;;;;16.25;60.08;100281.44;4331315;33;20040;-86
2022/05/10 04:11:39;;;;;;;;;;;;;;;16.47;60.09;100282.13;4332821;33;19999;-84
2022/05/10 04:14:05;;;;;;;;;;;;;;;16.47;60.09;100282.13;4332560;33;19986;-85
2022/05/10 04:16:30;;;;;;;;;;;;;;;16.59;60.09;100285.97;4332399;33;20026;-86
2022/05/10 04:18:55;;;;;;;;;;;;;;;16.76;60.10;100286.00;4332400;33;25130;-85
2022/05/10 04:21:20;;;;;;;;;;;;;;;16.99;60.11;100291.91;4331496;33;19999;-86
2022/05/10 04:23:46;;;;;;;;;;;;;;;17.18;60.13;100287.44;4331656;33;19976;-86
2022/05/10 04:26:12;;;;;;;;;;;;;;;17.10;60.12;100286.97;4332735;33;19984;-86
2022/05/10 04:28:38;;;;;;;;;;;;;;;17.17;60.13;100291.84;4332676;33;20338;-84
2022/05/10 04:31:03;;;;;;;;;;;;;;;17.16;60.13;100292.78;4331933;33;26120;-84
2022/05/10 04:33:28;;;;;;;;;;;;;;;17.38;60.13;100289.06;4319313;33;19987;-85
2022/05/10 04:35:54;;;;;;;;;;;;;;;17.48;60.14;100299.00;4331455;33;20018;-85
2022/05/10 04:38:19;;;;;;;;;;;;;;;17.77;60.16;100291.44;4331942;33;27384;-85
2022/05/10 04:43:28;;;;;;;;;;;;;;;18.10;60.18;100302.78;4332671;33;19998;-85
2022/05/10 04:45:53;;;;;;;;;;;;;;;18.27;60.18;100295.75;4319264;33;30216;-85
2022/05/10 04:48:18;;;;;;;;;;;;;;;18.60;60.20;100299.13;4333224;33;20282;-86
2022/05/10 04:50:44;;;;;;;;;;;;;;;18.63;60.21;100299.00;4333821;33;20364;-86
2022/05/10 04:53:09;;;;;;;;;;;;;;;18.79;60.21;100298.13;4332107;33;20282;-85
2022/05/10 04:55:34;;;;;;;;;;;;;;;18.84;60.21;100293.44;4331986;33;19998;-85
2022/05/10 04:58:00;;;;;;;;;;;;;;;18.87;60.22;100302.03;4331998;33;20020;-85
2022/05/10 05:00:26;;;;;;;;;;;;;;;18.98;60.22;100301.41;4339737;33;19976;-85
2022/05/10 05:02:51;;;;;;;;;;;;;;;19.21;60.23;100298.28;4338549;33;20298;-85
2022/05/10 05:05:16;;;;;;;;;;;;;;;19.25;60.24;100304.22;4333386;33;20003;-85
2022/05/10 05:07:41;;;;;;;;;;;;;;;19.54;60.25;100307.81;4332182;33;29943;-85
2022/05/10 05:10:07;;;;;;;;;;;;;;;19.73;60.26;100308.41;4332715;33;20035;-85
2022/05/10 05:12:32;;;;;;;;;;;;;;;19.77;60.27;100303.75;4334268;33;20023;-85
2022/05/10 05:14:58;;;;;;;;;;;;;;;19.99;60.27;100309.44;4309396;33;793157;-85
2022/05/10 05:17:23;;;;;;;;;;;;;;;20.11;60.28;100308.69;4320712;33;19991;-85
2022/05/10 05:19:48;;;;;;;;;;;;;;;20.24;60.30;100308.75;4320839;33;19989;-85
2022/05/10 05:22:14;;;;;;;;;;;;;;;20.37;60.29;100304.38;4332629;33;20417;-85
2022/05/10 05:24:39;;;;;;;;;;;;;;;20.38;60.29;100310.53;4333040;33;20011;-84
2022/05/10 05:27:04;;;;;;;;;;;;;;;20.36;60.29;100307.97;4320721;33;20000;-84
2022/05/10 05:29:30;;;;;;;;;;;;;;;20.25;60.29;100315.72;4334222;33;20001;-84
2022/05/10 05:31:55;;;;;;;;;;;;;;;20.14;60.28;100318.22;4332708;33;20336;-84
2022/05/10 05:34:20;;;;;;;;;;;;;;;20.36;60.29;100317.72;4333082;33;20294;-84
2022/05/10 05:37:32;;;;;;;;;;;;;;;20.36;60.29;100321.19;4320551;33;19998;-84
2022/05/10 05:39:30;;;;;;;;;;;;;;;20.53;60.30;100313.06;4334021;33;20055;-84
2022/05/10 05:41:56;;;;;;;;;;;;;;;20.39;60.29;100320.16;4343510;33;19984;-83
2022/05/10 05:44:23;;;;;;;;;;;;;;;20.60;60.30;100324.09;4348392;33;19992;-84
2022/05/10 05:46:48;;;;;;;;;;;;;;;20.71;60.31;100323.41;4347834;33;19992;-83
2022/05/10 05:49:14;;;;;;;;;;;;;;;20.62;60.30;100318.72;4335216;33;19999;-83
2022/05/10 05:51:39;;;;;;;;;;;;;;;20.76;60.32;100316.00;4348847;33;19999;-84
2022/05/10 05:54:08;;;;;;;;;;;;;;;21.06;60.33;100321.09;4332299;33;20003;-83
2022/05/10 05:56:34;;;;;;;;;;;;;;;21.17;60.33;100321.22;4333787;33;20019;-83
2022/05/10 05:58:59;;;;;;;;;;;;;;;21.36;60.35;100324.38;4333632;33;20015;-83
2022/05/10 06:01:24;;;;;;;;;;;;;;;21.52;60.35;100328.59;4319551;33;33592;-83
2022/05/10 06:03:51;;;;;;;;;;;;;;;21.61;60.36;100314.75;4319836;33;24653;-83
2022/05/10 06:06:16;;;;;;;;;;;;;;;21.70;60.36;100316.75;4333810;33;20003;-83
2022/05/10 06:08:41;;;;;;;;;;;;;;;21.77;60.37;100315.41;4333840;33;20304;-83
2022/05/10 06:11:07;;;;;;;;;;;;;;;22.02;60.38;100319.84;4333824;33;19968;-84
2022/05/10 06:13:34;;;;;;;;;;;;;;;22.00;60.38;100314.66;4333712;33;20026;-84
2022/05/10 06:15:59;;;;;;;;;;;;;;;22.39;60.40;100312.78;4333931;33;20412;-84
2022/05/10 06:18:24;;;;;;;;;;;;;;;22.54;60.41;100316.97;4333071;33;31757;-84
2022/05/10 06:20:50;;;;;;;;;;;;;;;22.73;60.42;100316.50;4336274;33;20058;-84
2022/05/10 06:23:15;;;;;;;;;;;;;;;22.80;60.43;100320.38;4335064;33;20353;-83
2022/05/10 06:25:40;;;;;;;;;;;;;;;22.74;60.43;100318.19;4348569;33;19988;-83
2022/05/10 06:28:05;;;;;;;;;;;;;;;22.83;60.42;100322.84;4322132;33;27996;-83
2022/05/10 06:30:31;;;;;;;;;;;;;;;22.93;60.43;100317.69;4348363;33;19960;-84
2022/05/10 06:32:56;;;;;;;;;;;;;;;22.85;60.42;100318.25;4348531;33;20289;-83
2022/05/10 06:35:21;;;;;;;;;;;;;;;22.69;60.41;100328.25;4348433;33;19998;-84
2022/05/10 06:40:31;;;;;;;;;;;;;;;23.03;60.43;100328.47;4337028;33;19986;-84
2022/05/10 06:42:59;;;;;;;;;;;;;;;23.15;60.44;100316.94;4334920;33;20023;-84
2022/05/10 06:45:25;;;;;;;;;;;;;;;23.25;60.45;100318.78;4335077;33;20014;-84
2022/05/10 06:47:50;;;;;;;;;;;;;;;23.21;60.45;100313.84;4334892;33;19987;-84
2022/05/10 06:50:17;;;;;;;;;;;;;;;23.33;60.45;100315.53;4334503;33;28083;-83
2022/05/10 06:52:42;;;;;;;;;;;;;;;23.64;60.47;100315.88;4349249;33;20307;-82
2022/05/10 06:55:08;;;;;;;;;;;;;;;23.76;60.48;100317.59;4336252;33;20003;-84
2022/05/10 06:57:33;;;;;;;;;;;;;;;23.94;60.48;100310.00;4337963;33;20307;-83
2022/05/10 06:59:58;;;;;;;;;;;;;;;24.07;60.50;100314.22;4347081;33;19999;-84
2022/05/10 07:02:24;;;;;;;;;;;;;;;24.16;60.49;100315.31;4346876;33;20055;-84
2022/05/10 07:04:50;;;;;;;;;;;;;;;24.19;60.49;100315.06;4348206;33;20268;-84
2022/05/10 07:07:15;;;;;;;;;;;;;;;24.16;60.50;100310.84;4348096;33;19991;-85
2022/05/10 07:09:40;;;;;;;;;;;;;;;24.42;60.51;100307.94;4348164;33;19980;-84
2022/05/10 07:12:05;;;;;;;;;;;;;;;24.36;60.50;100311.06;4333993;33;27801;-84
2022/05/10 07:14:31;;;;;;;;;;;;;;;24.36;60.50;100309.25;4348113;33;19984;-85
2022/05/10 07:16:56;;;;;;;;;;;;;;;24.48;60.51;100310.94;4348168;33;19990;-84
2022/05/10 07:19:21;;;;;;;;;;;;;;;24.56;60.52;100310.31;4346841;33;20328;-84
2022/05/10 07:21:49;;;;;;;;;;;;;;;24.39;60.51;100317.00;4346922;33;19980;-84
2022/05/10 07:24:16;;;;;;;;;;;;;;;24.65;60.52;100312.25;4348200;33;19987;-84
2022/05/10 07:26:45;;;;;;;;;;;;;;;24.90;60.53;100312.88;4348188;33;19975;-84
2022/05/10 07:29:10;;;;;;;;;;;;;;;24.80;60.53;100315.44;4334321;33;19979;-84
2022/05/10 07:31:35;;;;;;;;;;;;;;;24.71;60.53;100316.22;4333121;33;20018;-84
2022/05/10 07:34:00;;;;;;;;;;;;;;;24.71;60.53;100316.22;4347721;33;19998;-84
2022/05/10 07:36:28;;;;;;;;;;;;;;;24.78;60.53;100318.22;4347905;33;20014;-84
2022/05/10 07:38:53;;;;;;;;;;;;;;;24.44;60.52;100313.97;4346823;33;19986;-84
2022/05/10 07:41:21;;;;;;;;;;;;;;;24.61;60.52;100321.44;4347906;33;19984;-84
2022/05/10 07:43:46;;;;;;;;;;;;;;;24.79;60.53;100314.59;4347959;33;20341;-84
2022/05/10 07:46:12;;;;;;;;;;;;;;;24.49;60.52;100323.28;4346425;33;19999;-84
2022/05/10 07:48:37;;;;;;;;;;;;;;;24.49;60.51;100322.44;4346168;33;20333;-85
2022/05/10 07:51:02;;;;;;;;;;;;;;;24.71;60.53;100317.06;4347321;33;20272;-84
2022/05/10 07:53:28;;;;;;;;;;;;;;;24.57;60.52;100325.31;4347826;33;19999;-84
2022/05/10 07:55:53;;;;;;;;;;;;;;;24.55;60.52;100319.25;4333857;33;20256;-84
2022/05/10 07:58:18;;;;;;;;;;;;;;;24.56;60.52;100328.94;4347788;33;19994;-84
2022/05/10 08:00:43;;;;;;;;;;;;;;;24.32;60.51;100322.94;4346471;33;19995;-84
2022/05/10 08:03:09;;;;;;;;;;;;;;;24.51;60.52;100309.00;4347634;33;20007;-84
2022/05/10 08:05:35;;;;;;;;;;;;;;;24.57;60.52;100325.31;4333899;33;20376;-84
2022/05/10 08:08:00;;;;;;;;;;;;;;;24.59;60.52;100317.19;4347596;33;20010;-84
2022/05/10 08:10:25;;;;;;;;;;;;;;;24.61;60.53;100313.47;4333615;33;19991;-84
2022/05/10 08:12:50;;;;;;;;;;;;;;;24.55;60.52;100316.59;4333880;33;20293;-84
2022/05/10 08:15:16;;;;;;;;;;;;;;;24.76;60.54;100314.84;4346267;33;20014;-84
2022/05/10 08:17:41;;;;;;;;;;;;;;;24.84;60.54;100310.69;4346335;33;19983;-84
2022/05/10 08:20:07;;;;;;;;;;;;;;;24.97;60.54;100306.06;4346281;33;20019;-84
2022/05/10 08:22:32;;;;;;;;;;;;;;;24.92;60.54;100305.59;4347355;33;19980;-84
2022/05/10 08:24:57;;;;;;;;;;;;;;;25.12;60.55;100301.31;4347491;33;19994;-84
2022/05/10 08:27:23;;;;;;;;;;;;;;;25.36;60.56;100307.25;4333868;33;20016;-84
2022/05/10 08:29:48;;;;;;;;;;;;;;;25.63;60.58;100298.72;4347353;33;19984;-84
2022/05/10 08:32:13;;;;;;;;;;;;;;;25.99;60.60;100300.03;4345919;33;19995;-84
2022/05/10 08:34:38;;;;;;;;;;;;;;;26.26;60.61;100305.63;4333443;33;20536;-84
2022/05/10 08:37:04;;;;;;;;;;;;;;;26.58;60.63;100292.09;4333696;33;20304;-84
2022/05/10 08:39:29;;;;;;;;;;;;;;;26.77;60.64;100291.25;4347251;33;19976;-84
2022/05/10 08:41:55;;;;;;;;;;;;;;;27.03;60.66;100290.75;4346259;33;19987;-84
2022/05/10 08:44:28;;;;;;;;;;;;;;;27.24;60.66;100285.25;4348481;33;20010;-84
2022/05/10 08:47:07;;;;;;;;;;;;;;;27.40;60.67;100293.50;4348898;33;19995;-83
2022/05/10 08:49:41;;;;;;;;;;;;;;;27.42;60.66;100286.16;4350655;33;20370;-84
2022/05/10 08:52:07;;;;;;;;;;;;;;;27.69;60.69;100280.94;4352506;33;20277;-85
2022/05/10 08:54:34;;;;;;;;;;;;;;;27.87;60.69;100281.00;4345197;33;20036;-84
2022/05/10 08:57:00;;;;;;;;;;;;;;;27.75;60.69;100277.69;4345574;33;19988;-84
2022/05/10 08:59:44;;;;;;;;;;;;;;;27.78;60.69;100280.06;4345548;33;19980;-84
2022/05/10 09:02:12;;;;;;;;;;;;;;;27.95;60.70;100272.25;4333008;33;20037;-84
2022/05/10 09:04:44;;;;;;;;;;;;;;;27.91;60.70;100278.88;4345283;33;20037;-84
2022/05/10 09:07:13;;;;;;;;;;;;;;;27.75;60.69;100287.53;4332849;33;19998;-85
2022/05/10 09:09:59;;;;;;;;;;;;;;;27.49;60.67;100281.94;4345210;33;20064;-84
2022/05/10 09:12:24;;;;;;;;;;;;;;;27.07;60.66;100271.59;4334057;33;19997;-83
2022/05/10 09:14:52;;;;;;;;;;;;;;;27.41;60.67;100274.63;4334313;33;20024;-84
2022/05/10 09:17:18;;;;;;;;;;;;;;;27.74;60.69;100273.31;4345372;33;19980;-83
2022/05/10 09:19:43;;;;;;;;;;;;;;;28.14;60.71;100274.81;4345112;33;20031;-84
2022/05/10 09:22:26;;;;;;;;;;;;;;;28.30;60.72;100261.66;4345227;33;20285;-84
2022/05/10 09:24:53;;;;;;;;;;;;;;;28.34;60.72;100256.81;4345128;33;20031;-85
2022/05/10 09:27:18;;;;;;;;;;;;;;;28.38;60.72;100263.56;4344959;33;19988;-83
2022/05/10 09:29:50;;;;;;;;;;;;;;;28.43;60.73;100261.31;4345485;33;20041;-84
2022/05/10 09:35:10;;;;;;;;;;;;;;;28.15;60.71;100271.13;4334273;33;20053;-83
2022/05/10 09:37:36;;;;;;;;;;;;;;;28.26;60.72;100264.78;4334249;33;19979;-84
2022/05/10 09:40:04;;;;;;;;;;;;;;;28.47;60.73;100264.50;4345356;33;19991;-83
2022/05/10 09:42:30;;;;;;;;;;;;;;;28.39;60.72;100265.25;4345313;33;20330;-84
2022/05/10 09:45:02;;;;;;;;;;;;;;;28.46;60.73;100273.53;4334232;33;19991;-84
2022/05/10 09:47:27;;;;;;;;;;;;;;;28.33;60.72;100271.22;4332876;33;20031;-83
2022/05/10 09:49:52;;;;;;;;;;;;;;;28.25;60.72;100265.78;4345064;33;20003;-84
2022/05/10 09:52:18;;;;;;;;;;;;;;;28.29;60.72;100262.66;4334179;33;20258;-84
2022/05/10 09:54:43;;;;;;;;;;;;;;;28.40;60.72;100257.09;4344266;33;20389;-84
2022/05/10 09:57:23;;;;;;;;;;;;;;;28.55;60.74;100249.34;4344863;33;20274;-84
2022/05/10 09:59:49;;;;;;;;;;;;;;;28.65;60.73;100258.19;4334361;33;19984;-84
2022/05/10 10:02:27;;;;;;;;;;;;;;;28.81;60.75;100251.25;4333565;33;25860;-84
2022/05/10 10:04:53;;;;;;;;;;;;;;;29.11;60.76;100247.37;4334154;33;19983;-84
2022/05/10 10:07:22;;;;;;;;;;;;;;;29.41;60.78;100246.06;4332422;33;20006;-84
2022/05/10 10:09:51;;;;;;;;;;;;;;;29.42;60.78;100240.53;4333782;33;20318;-84
2022/05/10 10:12:27;;;;;;;;;;;;;;;29.47;60.77;100237.41;4333695;33;19992;-83
2022/05/10 10:14:52;;;;;;;;;;;;;;;29.66;60.79;100237.19;4344852;33;20332;-84
2022/05/10 10:17:22;;;;;;;;;;;;;;;29.51;60.78;100228.88;4344225;33;30340;-84
2022/05/10 10:19:49;;;;;;;;;;;;;;;29.62;60.78;100223.25;4333664;33;19984;-83
2022/05/10 10:22:14;;;;;;;;;;;;;;;29.71;60.79;100220.59;4344904;33;20380;-83
2022/05/10 10:24:54;;;;;;;;;;;;;;;30.04;60.82;100210.84;4333720;33;20015;-84
2022/05/10 10:27:29;;;;;;;;;;;;;;;30.27;60.83;100214.59;4333843;33;19975;-84
2022/05/10 10:29:55;;;;;;;;;;;;;;;30.32;60.82;100209.59;4333756;33;20009;-83
2022/05/10 10:32:22;;;;;;;;;;;;;;;30.55;60.83;100209.81;4333773;33;20379;-83
2022/05/10 10:34:50;;;;;;;;;;;;;;;30.74;60.84;100208.66;4344956;33;19980;-83
2022/05/10 10:37:16;;;;;;;;;;;;;;;30.69;60.83;100203.78;4333646;33;20007;-82
2022/05/10 10:40:00;;;;;;;;;;;;;;;30.68;60.84;100204.78;4333717;33;19994;-83
2022/05/10 10:42:38;;;;;;;;;;;;;;;30.87;60.85;100195.56;4333854;33;20032;-82
2022/05/10 10:45:04;;;;;;;;;;;;;;;30.87;60.85;100190.19;4333653;33;20012;-82
2022/05/10 10:47:38;;;;;;;;;;;;;;;30.95;60.85;100192.00;4332618;33;19972;-82
2022/05/10 10:50:10;;;;;;;;;;;;;;;31.22;60.86;100186.28;4333510;33;20042;-83
2022/05/10 10:52:35;;;;;;;;;;;;;;;31.33;60.87;100179.72;4333543;33;20051;-83
2022/05/10 10:55:00;;;;;;;;;;;;;;;31.39;60.88;100169.09;4332003;33;20035;-82
2022/05/10 10:57:30;;;;;;;;;;;;;;;31.65;60.88;100173.38;4332119;33;19975;-83
2022/05/10 10:59:55;;;;;;;;;;;;;;;31.89;60.90;100161.69;4319930;33;20019;-83
2022/05/10 11:02:39;;;;;;;;;;;;;;;31.97;60.90;100165.19;4333415;33;20265;-82
2022/05/10 11:05:23;;;;;;;;;;;;;;;32.19;60.92;100158.16;4331918;33;20072;-81
2022/05/10 11:08:09;;;;;;;;;;;;;;;32.17;60.91;100164.69;4304574;33;19976;-83
2022/05/10 11:10:47;;;;;;;;;;;;;;;32.05;60.91;100159.75;4302734;33;19996;-82
2022/05/10 11:13:12;;;;;;;;;;;;;;;32.10;60.92;100148.44;4304282;33;20082;-83
2022/05/10 11:15:43;;;;;;;;;;;;;;;31.98;60.91;100160.62;4302972;33;19992;-82
2022/05/10 11:18:19;;;;;;;;;;;;;;;31.38;60.88;100163.88;4304148;33;19991;-82
2022/05/10 11:20:44;;;;;;;;;;;;;;;30.81;60.84;100169.37;4315167;33;20311;-82
2022/05/10 11:23:10;;;;;;;;;;;;;;;30.62;60.84;100169.69;4304273;33;20016;-83
2022/05/10 11:25:46;;;;;;;;;;;;;;;30.15;60.82;100183.72;4314972;33;20004;-82
2022/05/10 11:28:30;;;;;;;;;;;;;;;28.41;60.73;100175.75;4314921;33;19973;-82
2022/05/10 11:30:57;;;;;;;;;;;;;;;27.38;60.68;100193.88;4304295;33;19992;-82
2022/05/10 11:33:41;;;;;;;;;;;;;;;26.17;60.62;100196.16;4304192;33;20008;-83
2022/05/10 11:36:06;;;;;;;;;;;;;;;25.12;60.56;100176.13;4304400;33;20330;-82
2022/05/10 11:38:46;;;;;;;;;;;;;;;24.38;60.53;100208.88;4304167;33;20044;-82
2022/05/10 11:41:18;;;;;;;;;;;;;;;23.93;60.50;100199.28;4314904;33;20011;-82
2022/05/10 11:43:43;;;;;;;;;;;;;;;;;;4304170;33;20334;-83
2022/05/10 11:46:29;;;;;;;;;;;;;;;22.49;60.44;100222.78;4304182;33;20805;-84
2022/05/10 11:49:13;;;;;;;;;;;;;;;22.10;60.42;100232.66;4304097;33;19984;-83
2022/05/10 11:51:42;;;;;;;;;;;;;;;21.86;60.40;100227.28;4304082;33;19992;-83
2022/05/10 11:54:17;;;;;;;;;;;;;;;21.40;60.38;100221.72;4314807;33;20009;-83
2022/05/10 11:56:42;;;;;;;;;;;;;;;21.14;60.35;100234.91;4303947;33;20003;-83
2022/05/10 11:59:15;;;;;;;;;;;;;;;21.22;60.36;100228.25;4314612;33;20028;-84
2022/05/10 12:01:44;;;;;;;;;;;;;;;21.33;60.37;100221.31;4302659;33;20004;-83
2022/05/10 12:04:32;;;;;;;;;;;;;;;21.49;60.38;100217.56;4314871;33;19989;-84
2022/05/10 12:07:04;;;;;;;;;;;;;;;21.65;60.38;100208.44;4324532;33;20717;-83
2022/05/10 12:09:48;;;;;;;;;;;;;;;21.79;60.40;100201.34;4320093;33;19980;-84
2022/05/10 12:12:23;;;;;;;;;;;;;;;22.15;60.41;100195.22;4318607;33;19993;-84
2022/05/10 12:23:49;;;;;;;;;;;;;;;22.61;60.43;100174.09;4319156;33;20064;-85
2022/05/10 12:26:34;;;;;;;;;;;;;;;22.93;60.46;100164.53;4320074;33;20044;-84
2022/05/10 12:28:59;;;;;;;;;;;;;;;22.91;60.45;100155.84;4319109;33;19988;-85
2022/05/10 12:31:30;;;;;;;;;;;;;;;22.90;60.45;100148.00;4330946;33;28148;-85
2022/05/10 12:33:59;;;;;;;;;;;;;;;23.07;60.46;100144.91;4319303;33;20012;-84
2022/05/10 12:36:50;;;;;;;;;;;;;;;23.06;60.46;100143.22;4320935;33;19988;-84
2022/05/10 12:39:17;;;;;;;;;;;;;;;23.27;60.47;100138.91;4319325;33;19990;-84
2022/05/10 12:42:01;;;;;;;;;;;;;;;23.44;60.48;100118.97;4332824;33;20371;-84
2022/05/10 12:44:46;;;;;;;;;;;;;;;23.39;60.47;100121.13;4331527;33;19984;-84
2022/05/10 12:47:14;;;;;;;;;;;;;;;23.53;60.48;100120.03;4320029;33;20006;-84
2022/05/10 12:49:58;;;;;;;;;;;;;;;23.87;60.49;100104.87;4319968;33;19968;-84
2022/05/10 12:52:26;;;;;;;;;;;;;;;24.21;60.52;100099.47;4318626;33;20349;-84
2022/05/10 12:54:55;;;;;;;;;;;;;;;24.47;60.52;100088.37;4319751;33;20263;-84
2022/05/10 12:57:35;;;;;;;;;;;;;;;24.51;60.52;100082.78;4330918;33;20000;-85
2022/05/10 13:00:00;;;;;;;;;;;;;;;24.68;60.54;100080.38;4330704;33;20482;-85
2022/05/10 13:02:27;;;;;;;;;;;;;;;25.04;60.55;100067.53;4318303;33;19994;-85